Wan Hai 273 — 9V7586 — position and weather

sailwx.info

Track history (hours):
 
Tides and Currents Weather Stations Pressure Air Temp Water Temp Dewpoint Dewpoint Depression Visibility Wind Speed Wind Dir Waves Ship Positions

Wan Hai 273

Last reported at 2018-Feb-21 23:35 UTC. Time now 2018-Feb-25 08:26 UTC.
Position N 16°05' E 108°27'.

Length 172 m; draft 9.2 m.

Type: Cargo ship. MMSI: 566406000.

Date/timePositionNaut miles runAvg speedWind from/ knotsBaromVisibWave heightAir tempDewpointWater temp
2018-Feb-21 23:35N 16°05' E 108°27'118.6
2018-Feb-21 23:30N 16°06' E 108°26'918.0
2018-Feb-21 22:59N 16°10' E 108°17'612.4
2018-Feb-21 22:31N 16°08' E 108°12'2 3.1
2018-Feb-21 22:00N 16°07' E 108°13'0 0.1
2018-Feb-21 21:29N 16°07' E 108°13'0 0.0
2018-Feb-21 20:59N 16°07' E 108°13'0 0.0
2018-Feb-21 20:29N 16°07' E 108°13'0 0.0
2018-Feb-21 19:59N 16°07' E 108°13'0 0.0
2018-Feb-21 19:29N 16°07' E 108°13'0 0.0
2018-Feb-21 18:59N 16°07' E 108°13'0 0.0
2018-Feb-21 18:30N 16°07' E 108°13'0 0.0
2018-Feb-21 17:59N 16°07' E 108°13'0 0.0
2018-Feb-21 17:29N 16°07' E 108°13'0 0.0
2018-Feb-21 17:00N 16°07' E 108°13'0 0.0
2018-Feb-21 16:29N 16°07' E 108°13'0 0.0
2018-Feb-21 15:59N 16°07' E 108°13'0 0.0
2018-Feb-21 15:26N 16°07' E 108°13'0 0.0
2018-Feb-21 14:59N 16°07' E 108°13'2 4.5
2018-Feb-21 14:30N 16°09' E 108°11'7 8.7
2018-Feb-21 13:42N 16°13' E 108°17'616.0
2018-Feb-21 13:21N 16°16' E 108°22'73718.6
2018-Feb-19 21:48N 22°22' E 119°40'817.5
2018-Feb-19 21:19N 22°26' E 119°48'618.4
2018-Feb-19 21:00N 22°29' E 119°53'918.0
2018-Feb-19 20:31N 22°33' E 120°02'918.3
2018-Feb-19 20:01N 22°37' E 120°11'611.3
2018-Feb-19 19:30N 22°37' E 120°17'2 4.7
2018-Feb-19 19:00N 22°35' E 120°18'0 0.0
2018-Feb-19 18:29N 22°35' E 120°18'0 0.0
2018-Feb-19 17:59N 22°35' E 120°18'0 0.0
2018-Feb-19 17:29N 22°35' E 120°18'0 0.1
2018-Feb-19 16:59N 22°35' E 120°18'0 0.0
2018-Feb-19 16:29N 22°35' E 120°18'0 0.0
2018-Feb-19 15:59N 22°35' E 120°18'0 0.0
2018-Feb-19 15:29N 22°35' E 120°18'0 0.0
2018-Feb-19 14:59N 22°35' E 120°18'0 0.0
2018-Feb-19 14:29N 22°35' E 120°18'0 0.0
2018-Feb-19 13:59N 22°35' E 120°18'0 0.0
2018-Feb-19 13:29N 22°35' E 120°18'0 0.0
2018-Feb-19 12:56N 22°35' E 120°18'0 0.0
2018-Feb-19 12:29N 22°35' E 120°18'0 0.0
2018-Feb-19 11:59N 22°35' E 120°18'0 0.0
2018-Feb-19 11:29N 22°35' E 120°18'0 0.0
2018-Feb-19 10:59N 22°35' E 120°18'0 0.0
2018-Feb-19 10:26N 22°35' E 120°18'0 0.0
2018-Feb-19 09:59N 22°35' E 120°18'0 0.0
2018-Feb-19 09:29N 22°35' E 120°18'0 0.1
2018-Feb-19 09:01N 22°35' E 120°18'2 3.9
2018-Feb-19 08:30N 22°36' E 120°17'4 7.9
2018-Feb-19 08:00N 22°37' E 120°13'1 2.0
2018-Feb-19 07:30N 22°38' E 120°12'2 4.1
2018-Feb-19 06:59N 22°40' E 120°13'0 0.0
2018-Feb-19 06:29N 22°40' E 120°13'0 0.0
2018-Feb-19 05:59N 22°40' E 120°13'0 0.0
2018-Feb-19 05:29N 22°40' E 120°13'0 0.1
2018-Feb-19 04:59N 22°40' E 120°13'0 0.0
2018-Feb-19 04:29N 22°40' E 120°13'0 0.0
2018-Feb-19 03:59N 22°40' E 120°13'0 0.0
2018-Feb-19 03:29N 22°40' E 120°13'0 0.1
2018-Feb-19 02:56N 22°40' E 120°13'0 0.0
2018-Feb-19 02:29N 22°40' E 120°13'0 0.0
2018-Feb-19 01:59N 22°40' E 120°13'0 0.0
2018-Feb-19 01:29N 22°40' E 120°13'0 0.0
2018-Feb-19 00:59N 22°40' E 120°13'0 0.0
2018-Feb-19 00:26N 22°40' E 120°13'0 0.0
2018-Feb-18 23:59N 22°40' E 120°13'0 0.0
2018-Feb-18 23:29N 22°40' E 120°13'0 0.0
2018-Feb-18 22:59N 22°40' E 120°13'0 0.0
2018-Feb-18 22:29N 22°40' E 120°13'0 0.0
2018-Feb-18 21:59N 22°40' E 120°13'0 0.0
2018-Feb-18 21:29N 22°40' E 120°13'0 0.0
2018-Feb-18 20:59N 22°40' E 120°13'0 0.0
2018-Feb-18 20:29N 22°40' E 120°13'0 0.0
2018-Feb-18 19:59N 22°40' E 120°13'0 0.0
2018-Feb-18 19:29N 22°40' E 120°13'0 0.0
2018-Feb-18 18:59N 22°40' E 120°13'0 0.0
2018-Feb-18 18:29N 22°40' E 120°13'0 0.0
2018-Feb-18 17:59N 22°40' E 120°13'0 0.0
2018-Feb-18 17:29N 22°40' E 120°13'0 0.0
2018-Feb-18 16:59N 22°40' E 120°13'0 0.0
2018-Feb-18 16:29N 22°40' E 120°13'1 2.2
2018-Feb-18 16:00N 22°40' E 120°12'714.7
2018-Feb-18 15:30N 22°46' E 120°07'817.0
2018-Feb-18 15:01N 22°53' E 120°02'815.8
2018-Feb-18 14:30N 23°00' E 119°58'714.5
2018-Feb-18 14:00N 23°07' E 119°56'714.2
2018-Feb-18 13:30N 23°14' E 119°56'714.1
2018-Feb-18 13:00N 23°21' E 119°56'714.2
2018-Feb-18 12:31N 23°28' E 119°56'714.7
2018-Feb-18 12:00N 23°36' E 119°56'815.7
2018-Feb-18 11:30N 23°44' E 119°57'816.3
2018-Feb-18 11:00N 23°51' E 120°01'816.3
2018-Feb-18 10:30N 23°57' E 120°06'917.1
2018-Feb-18 10:00N 24°04' E 120°12'917.0
2018-Feb-18 09:30N 24°11' E 120°18'65 5.0
2018-Feb-17 20:34N 25°05' E 120°57'116.4
2018-Feb-17 20:30N 25°06' E 120°58'1015.8
2018-Feb-17 19:50N 25°13' E 121°07'515.6
2018-Feb-17 19:30N 25°15' E 121°12'713.6
2018-Feb-17 19:00N 25°11' E 121°19'4 8.3
2018-Feb-17 18:30N 25°10' E 121°23'0 0.0
2018-Feb-17 16:15N 25°10' E 121°23'0 0.0
2018-Feb-17 15:53N 25°10' E 121°23'0 0.0
2018-Feb-17 15:21N 25°10' E 121°23'0 0.0
2018-Feb-17 15:00N 25°10' E 121°23'0 0.0
2018-Feb-17 10:37N 25°10' E 121°23'0 0.0
2018-Feb-17 10:28N 25°10' E 121°23'0 0.0
2018-Feb-17 09:31N 25°10' E 121°23'0 0.0
2018-Feb-17 08:22N 25°10' E 121°23'0 0.0
2018-Feb-17 06:49N 25°10' E 121°23'2 4.0
2018-Feb-17 06:21N 25°09' E 121°22'3 9.3
2018-Feb-17 06:00N 25°11' E 121°18'4 7.7
2018-Feb-17 05:30N 25°14' E 121°16'5 9.2
2018-Feb-17 05:00N 25°18' E 121°19'73118.1
2018-Feb-15 12:35N 32°58' E 132°09'419.2
2018-Feb-15 12:23N 33°02' E 132°08'819.0
2018-Feb-15 11:56N 33°10' E 132°04'716.8
2018-Feb-15 11:29N 33°16' E 131°59'4 8.9
2018-Feb-15 11:00N 33°21' E 131°59'816.8
2018-Feb-15 10:30N 33°27' E 132°05'917.3
2018-Feb-15 10:00N 33°33' E 132°12'1017.5
2018-Feb-15 09:25N 33°40' E 132°21'716.9
2018-Feb-15 09:00N 33°45' E 132°27'917.4
2018-Feb-15 08:28N 33°52' E 132°35'817.6
2018-Feb-15 08:00N 33°58' E 132°42'917.7
2018-Feb-15 07:31N 34°04' E 132°49'68 2.8
2018-Feb-14 07:11N 34°26' E 134°06'416.8
2018-Feb-14 06:59N 34°25' E 134°10'817.8
2018-Feb-14 06:30N 34°24' E 134°20'918.2
2018-Feb-14 06:00N 34°28' E 134°31'918.3
2018-Feb-14 05:31N 34°31' E 134°41'918.0
2018-Feb-14 05:00N 34°35' E 134°51'815.7
2018-Feb-14 04:30N 34°38' E 134°60'713.9
2018-Feb-14 04:00N 34°36' E 135°08'510.4
2018-Feb-14 03:30N 34°37' E 135°14'4 7.8
2018-Feb-14 03:00N 34°41' E 135°15'0 1.0
2018-Feb-14 02:30N 34°41' E 135°15'0 0.0
2018-Feb-14 02:00N 34°41' E 135°15'0 0.0
2018-Feb-14 01:30N 34°41' E 135°15'0 0.0
2018-Feb-14 01:00N 34°41' E 135°15'0 0.0
2018-Feb-14 00:30N 34°41' E 135°15'0 0.0
2018-Feb-14 00:00N 34°41' E 135°15'0 0.0
2018-Feb-13 23:30N 34°41' E 135°15'0 0.0
2018-Feb-13 23:00N 34°41' E 135°15'0 0.0
2018-Feb-13 22:30N 34°41' E 135°15'0 0.0
2018-Feb-13 22:00N 34°41' E 135°15'0 0.0
2018-Feb-13 21:30N 34°41' E 135°15'0 0.0
2018-Feb-13 21:00N 34°41' E 135°15'0 0.0
2018-Feb-13 20:30N 34°41' E 135°15'0 0.0
2018-Feb-13 20:00N 34°41' E 135°15'0 0.0
2018-Feb-13 19:30N 34°41' E 135°15'0 0.0
2018-Feb-13 19:00N 34°41' E 135°15'0 0.0
2018-Feb-13 18:30N 34°41' E 135°15'0 0.0
2018-Feb-13 18:00N 34°41' E 135°15'0 0.0
2018-Feb-13 17:30N 34°41' E 135°15'0 0.0
2018-Feb-13 17:00N 34°41' E 135°15'0 0.0
2018-Feb-13 16:30N 34°41' E 135°15'0 0.0
2018-Feb-13 16:00N 34°41' E 135°15'0 0.0
2018-Feb-13 15:30N 34°41' E 135°15'0 0.0
2018-Feb-13 15:00N 34°41' E 135°15'0 0.0
2018-Feb-13 14:30N 34°41' E 135°15'0 0.0
2018-Feb-13 14:00N 34°41' E 135°15'0 0.0
2018-Feb-13 13:30N 34°41' E 135°15'0 0.0
2018-Feb-13 13:00N 34°41' E 135°15'0 0.0
2018-Feb-13 12:30N 34°41' E 135°15'0 0.6
2018-Feb-13 12:00N 34°41' E 135°15'3 6.8
2018-Feb-13 11:30N 34°38' E 135°17'1 2.0
2018-Feb-13 11:00N 34°38' E 135°18'5 9.4
2018-Feb-13 10:30N 34°39' E 135°24'1 2.4
2018-Feb-13 10:00N 34°39' E 135°26'0 0.0
2018-Feb-13 09:30N 34°39' E 135°26'0 0.0
2018-Feb-13 09:00N 34°39' E 135°26'0 0.0
2018-Feb-13 08:30N 34°39' E 135°26'0 0.0
2018-Feb-13 08:00N 34°39' E 135°26'0 0.0
2018-Feb-13 07:30N 34°39' E 135°26'0 0.0
2018-Feb-13 07:00N 34°39' E 135°26'0 0.0
2018-Feb-13 06:30N 34°39' E 135°26'0 0.0
2018-Feb-13 06:00N 34°39' E 135°26'0 0.0
2018-Feb-13 05:30N 34°39' E 135°26'0 0.0
2018-Feb-13 05:00N 34°39' E 135°26'0 0.0
2018-Feb-13 04:27N 34°39' E 135°26'0 0.0
2018-Feb-13 04:00N 34°39' E 135°26'0 1.0
2018-Feb-13 03:30N 34°39' E 135°25'4 8.5
2018-Feb-13 03:00N 34°37' E 135°21'510.8
2018-Feb-13 02:30N 34°33' E 135°16'815.8
2018-Feb-13 02:01N 34°27' E 135°09'816.1
2018-Feb-13 01:30N 34°21' E 135°03'714.7
2018-Feb-13 01:00N 34°14' E 134°60'612.1
2018-Feb-13 00:30N 34°08' E 135°00'612.8
2018-Feb-13 00:00N 34°02' E 135°01'714.5
2018-Feb-12 23:30N 33°55' E 135°00'816.4
2018-Feb-12 23:00N 33°46' E 134°59'917.1
2018-Feb-12 22:29N 33°39' E 134°52'1518.4
2018-Feb-12 21:41N 33°28' E 134°42'12915.5
2018-Feb-12 13:22N 33°09' E 132°09'819.9
2018-Feb-12 12:58N 33°16' E 132°04'919.7
2018-Feb-12 12:30N 33°23' E 131°57'1019.9
2018-Feb-12 12:00N 33°32' E 131°52'1019.4
2018-Feb-12 11:30N 33°41' E 131°46'918.0
2018-Feb-12 11:00N 33°46' E 131°38'1019.4
2018-Feb-12 10:30N 33°48' E 131°26'1019.1
2018-Feb-12 10:00N 33°50' E 131°15'918.7
2018-Feb-12 09:30N 33°55' E 131°05'611.7
2018-Feb-12 09:01N 33°58' E 130°60'510.4
2018-Feb-12 08:31N 33°54' E 130°55'5 9.4
2018-Feb-12 08:00N 33°59' E 130°53'4 7.1
2018-Feb-12 07:30N 34°02' E 130°50'5 9.0
2018-Feb-12 07:00N 34°03' E 130°45'612.4
2018-Feb-12 06:31N 34°01' E 130°38'917.0
2018-Feb-12 06:00N 33°59' E 130°28'816.3
2018-Feb-12 05:30N 33°54' E 130°20'816.2
2018-Feb-12 05:01N 33°47' E 130°17'714.9
2018-Feb-12 04:31N 33°39' E 130°17'612.0
2018-Feb-12 04:00N 33°39' E 130°24'1 1.1
2018-Feb-12 03:29N 33°39' E 130°24'0 0.0
2018-Feb-12 02:56N 33°39' E 130°24'0 0.0
2018-Feb-12 02:26N 33°39' E 130°24'0 0.0
2018-Feb-12 01:59N 33°39' E 130°24'0 0.0
2018-Feb-12 01:29N 33°39' E 130°24'0 0.0
2018-Feb-12 00:56N 33°39' E 130°24'0 0.0
2018-Feb-12 00:29N 33°39' E 130°24'0 0.0
2018-Feb-11 23:59N 33°39' E 130°24'  
Track history (hours):
 
Tides and Currents Weather Stations Pressure Air Temp Water Temp Dewpoint Dewpoint Depression Visibility Wind Speed Wind Dir Waves Ship Positions

Wan Hai 273

Last reported at 2018-Feb-21 23:35 UTC. Time now 2018-Feb-25 08:26 UTC.
Position N 16°05' E 108°27'.

Length 172 m; draft 9.2 m.

Type: Cargo ship. MMSI: 566406000.

Date/timePositionNaut miles runAvg speedWind from/ knotsBaromVisibWave heightAir tempDewpointWater temp
2018-Feb-21 23:35N 16°05' E 108°27'118.6
2018-Feb-21 23:30N 16°06' E 108°26'918.0
2018-Feb-21 22:59N 16°10' E 108°17'612.4
2018-Feb-21 22:31N 16°08' E 108°12'2 3.1
2018-Feb-21 22:00N 16°07' E 108°13'0 0.1
2018-Feb-21 21:29N 16°07' E 108°13'0 0.0
2018-Feb-21 20:59N 16°07' E 108°13'0 0.0
2018-Feb-21 20:29N 16°07' E 108°13'0 0.0
2018-Feb-21 19:59N 16°07' E 108°13'0 0.0
2018-Feb-21 19:29N 16°07' E 108°13'0 0.0
2018-Feb-21 18:59N 16°07' E 108°13'0 0.0
2018-Feb-21 18:30N 16°07' E 108°13'0 0.0
2018-Feb-21 17:59N 16°07' E 108°13'0 0.0
2018-Feb-21 17:29N 16°07' E 108°13'0 0.0
2018-Feb-21 17:00N 16°07' E 108°13'0 0.0
2018-Feb-21 16:29N 16°07' E 108°13'0 0.0
2018-Feb-21 15:59N 16°07' E 108°13'0 0.0
2018-Feb-21 15:26N 16°07' E 108°13'0 0.0
2018-Feb-21 14:59N 16°07' E 108°13'2 4.5
2018-Feb-21 14:30N 16°09' E 108°11'7 8.7
2018-Feb-21 13:42N 16°13' E 108°17'616.0
2018-Feb-21 13:21N 16°16' E 108°22'73718.6
2018-Feb-19 21:48N 22°22' E 119°40'817.5
2018-Feb-19 21:19N 22°26' E 119°48'618.4
2018-Feb-19 21:00N 22°29' E 119°53'918.0
2018-Feb-19 20:31N 22°33' E 120°02'918.3
2018-Feb-19 20:01N 22°37' E 120°11'611.3
2018-Feb-19 19:30N 22°37' E 120°17'2 4.7
2018-Feb-19 19:00N 22°35' E 120°18'0 0.0
2018-Feb-19 18:29N 22°35' E 120°18'0 0.0
2018-Feb-19 17:59N 22°35' E 120°18'0 0.0
2018-Feb-19 17:29N 22°35' E 120°18'0 0.1
2018-Feb-19 16:59N 22°35' E 120°18'0 0.0
2018-Feb-19 16:29N 22°35' E 120°18'0 0.0
2018-Feb-19 15:59N 22°35' E 120°18'0 0.0
2018-Feb-19 15:29N 22°35' E 120°18'0 0.0
2018-Feb-19 14:59N 22°35' E 120°18'0 0.0
2018-Feb-19 14:29N 22°35' E 120°18'0 0.0
2018-Feb-19 13:59N 22°35' E 120°18'0 0.0
2018-Feb-19 13:29N 22°35' E 120°18'0 0.0
2018-Feb-19 12:56N 22°35' E 120°18'0 0.0
2018-Feb-19 12:29N 22°35' E 120°18'0 0.0
2018-Feb-19 11:59N 22°35' E 120°18'0 0.0
2018-Feb-19 11:29N 22°35' E 120°18'0 0.0
2018-Feb-19 10:59N 22°35' E 120°18'0 0.0
2018-Feb-19 10:26N 22°35' E 120°18'0 0.0
2018-Feb-19 09:59N 22°35' E 120°18'0 0.0
2018-Feb-19 09:29N 22°35' E 120°18'0 0.1
2018-Feb-19 09:01N 22°35' E 120°18'2 3.9
2018-Feb-19 08:30N 22°36' E 120°17'4 7.9
2018-Feb-19 08:00N 22°37' E 120°13'1 2.0
2018-Feb-19 07:30N 22°38' E 120°12'2 4.1
2018-Feb-19 06:59N 22°40' E 120°13'0 0.0
2018-Feb-19 06:29N 22°40' E 120°13'0 0.0
2018-Feb-19 05:59N 22°40' E 120°13'0 0.0
2018-Feb-19 05:29N 22°40' E 120°13'0 0.1
2018-Feb-19 04:59N 22°40' E 120°13'0 0.0
2018-Feb-19 04:29N 22°40' E 120°13'0 0.0
2018-Feb-19 03:59N 22°40' E 120°13'0 0.0
2018-Feb-19 03:29N 22°40' E 120°13'0 0.1
2018-Feb-19 02:56N 22°40' E 120°13'0 0.0
2018-Feb-19 02:29N 22°40' E 120°13'0 0.0
2018-Feb-19 01:59N 22°40' E 120°13'0 0.0
2018-Feb-19 01:29N 22°40' E 120°13'0 0.0
2018-Feb-19 00:59N 22°40' E 120°13'0 0.0
2018-Feb-19 00:26N 22°40' E 120°13'0 0.0
2018-Feb-18 23:59N 22°40' E 120°13'0 0.0
2018-Feb-18 23:29N 22°40' E 120°13'0 0.0
2018-Feb-18 22:59N 22°40' E 120°13'0 0.0
2018-Feb-18 22:29N 22°40' E 120°13'0 0.0
2018-Feb-18 21:59N 22°40' E 120°13'0 0.0
2018-Feb-18 21:29N 22°40' E 120°13'0 0.0
2018-Feb-18 20:59N 22°40' E 120°13'0 0.0
2018-Feb-18 20:29N 22°40' E 120°13'0 0.0
2018-Feb-18 19:59N 22°40' E 120°13'0 0.0
2018-Feb-18 19:29N 22°40' E 120°13'0 0.0
2018-Feb-18 18:59N 22°40' E 120°13'0 0.0
2018-Feb-18 18:29N 22°40' E 120°13'0 0.0
2018-Feb-18 17:59N 22°40' E 120°13'0 0.0
2018-Feb-18 17:29N 22°40' E 120°13'0 0.0
2018-Feb-18 16:59N 22°40' E 120°13'0 0.0
2018-Feb-18 16:29N 22°40' E 120°13'1 2.2
2018-Feb-18 16:00N 22°40' E 120°12'714.7
2018-Feb-18 15:30N 22°46' E 120°07'817.0
2018-Feb-18 15:01N 22°53' E 120°02'815.8
2018-Feb-18 14:30N 23°00' E 119°58'714.5
2018-Feb-18 14:00N 23°07' E 119°56'714.2
2018-Feb-18 13:30N 23°14' E 119°56'714.1
2018-Feb-18 13:00N 23°21' E 119°56'714.2
2018-Feb-18 12:31N 23°28' E 119°56'714.7
2018-Feb-18 12:00N 23°36' E 119°56'815.7
2018-Feb-18 11:30N 23°44' E 119°57'816.3
2018-Feb-18 11:00N 23°51' E 120°01'816.3
2018-Feb-18 10:30N 23°57' E 120°06'917.1
2018-Feb-18 10:00N 24°04' E 120°12'917.0
2018-Feb-18 09:30N 24°11' E 120°18'65 5.0
2018-Feb-17 20:34N 25°05' E 120°57'116.4
2018-Feb-17 20:30N 25°06' E 120°58'1015.8
2018-Feb-17 19:50N 25°13' E 121°07'515.6
2018-Feb-17 19:30N 25°15' E 121°12'713.6
2018-Feb-17 19:00N 25°11' E 121°19'4 8.3
2018-Feb-17 18:30N 25°10' E 121°23'0 0.0
2018-Feb-17 16:15N 25°10' E 121°23'0 0.0
2018-Feb-17 15:53N 25°10' E 121°23'0 0.0
2018-Feb-17 15:21N 25°10' E 121°23'0 0.0
2018-Feb-17 15:00N 25°10' E 121°23'0 0.0
2018-Feb-17 10:37N 25°10' E 121°23'0 0.0
2018-Feb-17 10:28N 25°10' E 121°23'0 0.0
2018-Feb-17 09:31N 25°10' E 121°23'0 0.0
2018-Feb-17 08:22N 25°10' E 121°23'0 0.0
2018-Feb-17 06:49N 25°10' E 121°23'2 4.0
2018-Feb-17 06:21N 25°09' E 121°22'3 9.3
2018-Feb-17 06:00N 25°11' E 121°18'4 7.7
2018-Feb-17 05:30N 25°14' E 121°16'5 9.2
2018-Feb-17 05:00N 25°18' E 121°19'73118.1
2018-Feb-15 12:35N 32°58' E 132°09'419.2
2018-Feb-15 12:23N 33°02' E 132°08'819.0
2018-Feb-15 11:56N 33°10' E 132°04'716.8
2018-Feb-15 11:29N 33°16' E 131°59'4 8.9
2018-Feb-15 11:00N 33°21' E 131°59'816.8
2018-Feb-15 10:30N 33°27' E 132°05'917.3
2018-Feb-15 10:00N 33°33' E 132°12'1017.5
2018-Feb-15 09:25N 33°40' E 132°21'716.9
2018-Feb-15 09:00N 33°45' E 132°27'917.4
2018-Feb-15 08:28N 33°52' E 132°35'817.6
2018-Feb-15 08:00N 33°58' E 132°42'917.7
2018-Feb-15 07:31N 34°04' E 132°49'68 2.8
2018-Feb-14 07:11N 34°26' E 134°06'416.8
2018-Feb-14 06:59N 34°25' E 134°10'817.8
2018-Feb-14 06:30N 34°24' E 134°20'918.2
2018-Feb-14 06:00N 34°28' E 134°31'918.3
2018-Feb-14 05:31N 34°31' E 134°41'918.0
2018-Feb-14 05:00N 34°35' E 134°51'815.7
2018-Feb-14 04:30N 34°38' E 134°60'713.9
2018-Feb-14 04:00N 34°36' E 135°08'510.4
2018-Feb-14 03:30N 34°37' E 135°14'4 7.8
2018-Feb-14 03:00N 34°41' E 135°15'0 1.0
2018-Feb-14 02:30N 34°41' E 135°15'0 0.0
2018-Feb-14 02:00N 34°41' E 135°15'0 0.0
2018-Feb-14 01:30N 34°41' E 135°15'0 0.0
2018-Feb-14 01:00N 34°41' E 135°15'0 0.0
2018-Feb-14 00:30N 34°41' E 135°15'0 0.0
2018-Feb-14 00:00N 34°41' E 135°15'0 0.0
2018-Feb-13 23:30N 34°41' E 135°15'0 0.0
2018-Feb-13 23:00N 34°41' E 135°15'0 0.0
2018-Feb-13 22:30N 34°41' E 135°15'0 0.0
2018-Feb-13 22:00N 34°41' E 135°15'0 0.0
2018-Feb-13 21:30N 34°41' E 135°15'0 0.0
2018-Feb-13 21:00N 34°41' E 135°15'0 0.0
2018-Feb-13 20:30N 34°41' E 135°15'0 0.0
2018-Feb-13 20:00N 34°41' E 135°15'0 0.0
2018-Feb-13 19:30N 34°41' E 135°15'0 0.0
2018-Feb-13 19:00N 34°41' E 135°15'0 0.0
2018-Feb-13 18:30N 34°41' E 135°15'0 0.0
2018-Feb-13 18:00N 34°41' E 135°15'0 0.0
2018-Feb-13 17:30N 34°41' E 135°15'0 0.0
2018-Feb-13 17:00N 34°41' E 135°15'0 0.0
2018-Feb-13 16:30N 34°41' E 135°15'0 0.0
2018-Feb-13 16:00N 34°41' E 135°15'0 0.0
2018-Feb-13 15:30N 34°41' E 135°15'0 0.0
2018-Feb-13 15:00N 34°41' E 135°15'0 0.0
2018-Feb-13 14:30N 34°41' E 135°15'0 0.0
2018-Feb-13 14:00N 34°41' E 135°15'0 0.0
2018-Feb-13 13:30N 34°41' E 135°15'0 0.0
2018-Feb-13 13:00N 34°41' E 135°15'0 0.0
2018-Feb-13 12:30N 34°41' E 135°15'0 0.6
2018-Feb-13 12:00N 34°41' E 135°15'3 6.8
2018-Feb-13 11:30N 34°38' E 135°17'1 2.0
2018-Feb-13 11:00N 34°38' E 135°18'5 9.4
2018-Feb-13 10:30N 34°39' E 135°24'1 2.4
2018-Feb-13 10:00N 34°39' E 135°26'0 0.0
2018-Feb-13 09:30N 34°39' E 135°26'0 0.0
2018-Feb-13 09:00N 34°39' E 135°26'0 0.0
2018-Feb-13 08:30N 34°39' E 135°26'0 0.0
2018-Feb-13 08:00N 34°39' E 135°26'0 0.0
2018-Feb-13 07:30N 34°39' E 135°26'0 0.0
2018-Feb-13 07:00N 34°39' E 135°26'0 0.0
2018-Feb-13 06:30N 34°39' E 135°26'0 0.0
2018-Feb-13 06:00N 34°39' E 135°26'0 0.0
2018-Feb-13 05:30N 34°39' E 135°26'0 0.0
2018-Feb-13 05:00N 34°39' E 135°26'0 0.0
2018-Feb-13 04:27N 34°39' E 135°26'0 0.0
2018-Feb-13 04:00N 34°39' E 135°26'0 1.0
2018-Feb-13 03:30N 34°39' E 135°25'4 8.5
2018-Feb-13 03:00N 34°37' E 135°21'510.8
2018-Feb-13 02:30N 34°33' E 135°16'815.8
2018-Feb-13 02:01N 34°27' E 135°09'816.1
2018-Feb-13 01:30N 34°21' E 135°03'714.7
2018-Feb-13 01:00N 34°14' E 134°60'612.1
2018-Feb-13 00:30N 34°08' E 135°00'612.8
2018-Feb-13 00:00N 34°02' E 135°01'714.5
2018-Feb-12 23:30N 33°55' E 135°00'816.4
2018-Feb-12 23:00N 33°46' E 134°59'917.1
2018-Feb-12 22:29N 33°39' E 134°52'1518.4
2018-Feb-12 21:41N 33°28' E 134°42'12915.5
2018-Feb-12 13:22N 33°09' E 132°09'819.9
2018-Feb-12 12:58N 33°16' E 132°04'919.7
2018-Feb-12 12:30N 33°23' E 131°57'1019.9
2018-Feb-12 12:00N 33°32' E 131°52'1019.4
2018-Feb-12 11:30N 33°41' E 131°46'918.0
2018-Feb-12 11:00N 33°46' E 131°38'1019.4
2018-Feb-12 10:30N 33°48' E 131°26'1019.1
2018-Feb-12 10:00N 33°50' E 131°15'918.7
2018-Feb-12 09:30N 33°55' E 131°05'611.7
2018-Feb-12 09:01N 33°58' E 130°60'510.4
2018-Feb-12 08:31N 33°54' E 130°55'5 9.4
2018-Feb-12 08:00N 33°59' E 130°53'4 7.1
2018-Feb-12 07:30N 34°02' E 130°50'5 9.0
2018-Feb-12 07:00N 34°03' E 130°45'612.4
2018-Feb-12 06:31N 34°01' E 130°38'917.0
2018-Feb-12 06:00N 33°59' E 130°28'816.3
2018-Feb-12 05:30N 33°54' E 130°20'816.2
2018-Feb-12 05:01N 33°47' E 130°17'714.9
2018-Feb-12 04:31N 33°39' E 130°17'612.0
2018-Feb-12 04:00N 33°39' E 130°24'1 1.1
2018-Feb-12 03:29N 33°39' E 130°24'0 0.0
2018-Feb-12 02:56N 33°39' E 130°24'0 0.0
2018-Feb-12 02:26N 33°39' E 130°24'0 0.0
2018-Feb-12 01:59N 33°39' E 130°24'0 0.0
2018-Feb-12 01:29N 33°39' E 130°24'0 0.0
2018-Feb-12 00:56N 33°39' E 130°24'0 0.0
2018-Feb-12 00:29N 33°39' E 130°24'0 0.0
2018-Feb-11 23:59N 33°39' E 130°24'  

Dump ship's entire track history